createdAt,value
2018-04-14T00:00:17.399Z,99.47
2018-04-14T00:02:44.902Z,101.85
2018-04-14T00:05:12.360Z,110.22
2018-04-14T00:07:39.822Z,112.88
2018-04-14T00:10:07.284Z,104.65
2018-04-14T00:12:34.782Z,115.03
2018-04-14T00:15:02.267Z,113.72
2018-04-14T00:17:29.747Z,122.75
2018-04-14T00:19:57.212Z,122.47
2018-04-14T00:22:24.664Z,115.93
2018-04-14T00:24:52.124Z,112.47
2018-04-14T00:27:19.580Z,119.93
2018-04-14T00:29:47.103Z,124.15
2018-04-14T00:32:15.347Z,118.57
2018-04-14T00:34:42.824Z,118.13
2018-04-14T00:37:10.317Z,115.65
2018-04-14T00:39:37.811Z,115.18
2018-04-14T00:42:05.228Z,124.07
2018-04-14T00:44:32.717Z,116.88
2018-04-14T00:47:00.180Z,113.80
2018-04-14T00:49:27.632Z,117.87
2018-04-14T00:51:55.092Z,112.60
2018-04-14T00:54:22.560Z,116.47
2018-04-14T00:56:50.038Z,117.82
2018-04-14T00:59:17.527Z,118.90
2018-04-14T01:01:44.984Z,117.57
2018-04-14T01:04:12.465Z,113.20
2018-04-14T01:06:39.920Z,108.93
2018-04-14T01:09:07.420Z,116.85
2018-04-14T01:11:34.899Z,112.07
2018-04-14T01:14:02.453Z,110.13
2018-04-14T01:16:30.026Z,109.10
2018-04-14T01:18:57.502Z,110.78
2018-04-14T01:21:24.982Z,112.20
2018-04-14T01:23:52.446Z,112.35
2018-04-14T01:26:19.930Z,114.10
2018-04-14T01:28:48.180Z,118.62
2018-04-14T01:31:15.649Z,121.93
2018-04-14T01:33:43.116Z,120.95
2018-04-14T01:36:10.605Z,116.72
2018-04-14T01:38:38.063Z,122.35
2018-04-14T01:41:05.545Z,115.40
2018-04-14T01:43:33.031Z,116.13
2018-04-14T01:46:00.584Z,121.55
2018-04-14T01:48:28.153Z,113.03
2018-04-14T01:50:55.727Z,117.37
2018-04-14T01:53:23.303Z,114.43
2018-04-14T01:55:50.870Z,108.15
2018-04-14T01:58:18.346Z,111.97
2018-04-14T02:00:45.902Z,106.30
2018-04-14T02:03:13.364Z,102.22
2018-04-14T02:05:40.961Z,99.32
2018-04-14T02:08:08.515Z,109.37
2018-04-14T02:10:35.980Z,98.87
2018-04-14T02:13:03.449Z,101.30
2018-04-14T02:15:30.900Z,90.78
2018-04-14T02:17:58.367Z,91.18
2018-04-14T02:20:25.866Z,90.43
2018-04-14T02:22:53.336Z,96.82
2018-04-14T02:25:20.923Z,93.32
2018-04-14T02:27:49.892Z,89.40
2018-04-14T02:30:17.359Z,87.97
2018-04-14T02:32:44.866Z,83.20
2018-04-14T02:35:12.335Z,86.00
2018-04-14T02:37:39.887Z,81.30
2018-04-14T02:40:07.350Z,83.30
2018-04-14T02:42:34.821Z,83.68
2018-04-14T02:45:02.310Z,79.55
2018-04-14T02:47:29.773Z,84.72
2018-04-14T02:49:57.245Z,85.43
2018-04-14T02:52:24.789Z,75.32
2018-04-14T02:54:52.276Z,80.87
2018-04-14T02:57:19.758Z,78.00
2018-04-14T02:59:47.221Z,72.40
2018-04-14T03:02:14.682Z,78.35
2018-04-14T03:04:42.144Z,78.30
2018-04-14T03:07:09.686Z,76.62
2018-04-14T03:09:37.890Z,77.07
2018-04-14T03:12:05.368Z,77.35
2018-04-14T03:14:32.815Z,73.15
2018-04-14T03:17:00.294Z,74.03
2018-04-14T03:19:27.806Z,72.00
2018-04-14T03:21:55.374Z,73.90
2018-04-14T03:24:22.838Z,72.90
2018-04-14T03:26:50.399Z,72.97
2018-04-14T03:29:17.872Z,67.10
2018-04-14T03:31:45.358Z,72.95
2018-04-14T03:34:12.832Z,73.50
2018-04-14T03:36:40.566Z,72.70
2018-04-14T03:39:08.019Z,74.30
2018-04-14T03:41:35.538Z,73.77
2018-04-14T03:44:02.990Z,71.90
2018-04-14T03:46:30.445Z,65.15
2018-04-14T03:48:57.936Z,76.32
2018-04-14T03:51:25.412Z,68.82
2018-04-14T03:53:52.898Z,72.57
2018-04-14T03:56:20.366Z,70.50
2018-04-14T03:58:47.912Z,69.70
2018-04-14T04:01:15.360Z,75.28
2018-04-14T04:03:42.866Z,78.03
2018-04-14T04:06:10.338Z,72.25
2018-04-14T04:08:38.006Z,72.32
2018-04-14T04:11:05.478Z,71.65
2018-04-14T04:13:32.958Z,76.47
2018-04-14T04:16:00.447Z,74.43
2018-04-14T04:18:39.806Z,76.05
2018-04-14T04:21:34.676Z,70.12
2018-04-14T04:24:14.034Z,73.50
2018-04-14T04:26:41.602Z,76.25
2018-04-14T04:29:09.177Z,72.28
2018-04-14T04:31:36.746Z,75.87
2018-04-14T04:34:04.301Z,72.80
2018-04-14T04:36:32.630Z,73.22
2018-04-14T04:39:00.096Z,75.97
2018-04-14T04:41:27.564Z,73.28
2018-04-14T04:43:55.016Z,78.30
2018-04-14T04:46:22.475Z,75.10
2018-04-14T04:48:49.981Z,77.35
2018-04-14T04:51:17.409Z,78.15
2018-04-14T04:53:44.892Z,70.50
2018-04-14T04:56:12.586Z,75.55
2018-04-14T04:58:40.136Z,72.35
2018-04-14T05:01:07.613Z,75.78
2018-04-14T05:03:35.884Z,77.17
2018-04-14T05:06:03.356Z,75.35
2018-04-14T05:08:30.832Z,75.47
2018-04-14T05:10:58.410Z,74.87
2018-04-14T05:13:25.872Z,74.65
2018-04-14T05:15:53.343Z,78.65
2018-04-14T05:18:20.920Z,83.47
2018-04-14T05:20:48.426Z,74.53
2018-04-14T05:23:16.662Z,80.13
2018-04-14T05:25:44.104Z,81.22
2018-04-14T05:28:11.586Z,80.05
2018-04-14T05:30:39.063Z,81.68
2018-04-14T05:33:06.566Z,81.68
2018-04-14T05:35:34.139Z,79.97
2018-04-14T05:38:01.710Z,81.90
2018-04-14T05:40:29.175Z,73.65
2018-04-14T05:42:56.767Z,73.20
2018-04-14T05:45:24.221Z,72.90
2018-04-14T05:47:51.768Z,76.87
2018-04-14T05:50:19.254Z,72.35
2018-04-14T05:52:46.722Z,72.70
2018-04-14T05:55:14.198Z,73.70
2018-04-14T05:57:41.682Z,68.37
2018-04-14T06:00:09.238Z,70.10
2018-04-14T06:02:36.795Z,69.65
2018-04-14T06:05:04.254Z,65.90
2018-04-14T06:07:31.722Z,68.60
2018-04-14T06:09:59.215Z,73.12
2018-04-14T06:12:26.771Z,67.05
2018-04-14T06:14:54.265Z,70.50
2018-04-14T06:17:21.715Z,64.80
2018-04-14T06:19:49.178Z,65.78
2018-04-14T06:22:16.726Z,69.55
2018-04-14T06:24:44.898Z,66.12
2018-04-14T06:27:12.522Z,71.53
2018-04-14T06:29:39.996Z,68.55
2018-04-14T06:32:07.459Z,68.10
2018-04-14T06:34:34.922Z,63.20
2018-04-14T06:37:02.377Z,66.70
2018-04-14T06:39:29.823Z,69.37
2018-04-14T06:41:57.298Z,70.87
2018-04-14T06:44:24.858Z,65.10
2018-04-14T06:46:52.295Z,64.75
2018-04-14T06:49:19.860Z,70.10
2018-04-14T06:51:47.413Z,66.82
2018-04-14T06:54:14.859Z,68.43
2018-04-14T06:56:42.328Z,69.78
2018-04-14T06:59:09.815Z,66.68
2018-04-14T07:01:37.269Z,68.70
2018-04-14T07:04:04.728Z,66.70
2018-04-14T07:06:32.202Z,65.82
2018-04-14T07:08:59.695Z,67.15
2018-04-14T07:11:27.178Z,65.22
2018-04-14T07:13:54.660Z,65.03
2018-04-14T07:16:22.113Z,64.70
2018-04-14T07:18:49.578Z,65.15
2018-04-14T07:21:17.044Z,68.87
2018-04-14T07:23:44.510Z,63.40
2018-04-14T07:26:12.002Z,65.25
2018-04-14T07:28:39.468Z,63.90
2018-04-14T07:31:06.920Z,61.28
2018-04-14T07:33:34.395Z,66.03
2018-04-14T07:36:01.871Z,65.28
2018-04-14T07:38:29.335Z,61.40
2018-04-14T07:40:56.827Z,66.82
2018-04-14T07:43:24.286Z,64.57
2018-04-14T07:45:51.756Z,64.80
2018-04-14T07:48:19.211Z,61.95
2018-04-14T07:50:46.660Z,69.40
2018-04-14T07:53:14.248Z,63.53
2018-04-14T07:55:41.722Z,61.20
2018-04-14T07:58:09.188Z,61.88
2018-04-14T08:00:36.654Z,62.17
2018-04-14T08:03:04.127Z,63.58
2018-04-14T08:05:31.591Z,63.47
2018-04-14T08:07:59.082Z,63.90
2018-04-14T08:10:26.535Z,63.97
2018-04-14T08:12:54.074Z,64.40
2018-04-14T08:15:21.580Z,57.97
2018-04-14T08:17:49.066Z,62.85
2018-04-14T08:20:16.531Z,63.13
2018-04-14T08:22:44.037Z,62.83
2018-04-14T08:25:12.268Z,58.10
2018-04-14T08:27:39.741Z,58.72
2018-04-14T08:30:07.271Z,60.55
2018-04-14T08:32:34.718Z,60.80
2018-04-14T08:35:02.191Z,61.78
2018-04-14T08:37:29.722Z,59.47
2018-04-14T08:39:57.104Z,62.20
2018-04-14T08:42:24.560Z,65.00
2018-04-14T08:44:52.008Z,59.20
2018-04-14T08:47:19.485Z,60.40
2018-04-14T08:49:46.934Z,58.05
2018-04-14T08:52:14.409Z,57.00
2018-04-14T08:54:41.932Z,57.97
2018-04-14T08:57:09.476Z,56.23
2018-04-14T08:59:36.982Z,58.08
2018-04-14T09:02:04.440Z,61.03
2018-04-14T09:04:31.988Z,54.72
2018-04-14T09:06:59.483Z,58.95
2018-04-14T09:09:27.028Z,59.03
2018-04-14T09:11:54.500Z,58.58
2018-04-14T09:14:21.956Z,60.30
2018-04-14T09:16:49.412Z,59.20
2018-04-14T09:19:16.931Z,59.97
2018-04-14T09:21:44.410Z,59.87
2018-04-14T09:24:11.872Z,61.17
2018-04-14T09:26:39.342Z,61.20
2018-04-14T09:29:06.800Z,62.78
2018-04-14T09:31:34.290Z,59.05
2018-04-14T09:34:01.738Z,55.10
2018-04-14T09:36:29.198Z,54.30
2018-04-14T09:38:56.668Z,59.42
2018-04-14T09:41:24.129Z,56.83
2018-04-14T09:43:51.572Z,58.60
2018-04-14T09:46:19.028Z,58.67
2018-04-14T09:48:47.276Z,55.97
2018-04-14T09:51:14.862Z,57.38
2018-04-14T09:53:42.419Z,58.67
2018-04-14T09:56:09.869Z,53.75
2018-04-14T09:58:37.316Z,52.83
2018-04-14T10:01:11.263Z,54.30
2018-04-14T10:03:38.707Z,55.90
2018-04-14T10:06:06.165Z,51.05
2018-04-14T10:08:33.699Z,54.20
2018-04-14T10:11:01.252Z,53.00
2018-04-14T10:13:28.734Z,52.85
2018-04-14T10:15:56.192Z,53.20
2018-04-14T10:18:23.641Z,54.53
2018-04-14T10:20:51.114Z,55.17
2018-04-14T10:23:18.586Z,54.30
2018-04-14T10:25:46.054Z,57.08
2018-04-14T10:28:13.536Z,54.97
2018-04-14T10:30:40.996Z,51.80
2018-04-14T10:33:08.488Z,59.27
2018-04-14T10:35:36.040Z,52.17
2018-04-14T10:38:03.561Z,56.60
2018-04-14T10:40:31.085Z,51.08
2018-04-14T10:42:58.545Z,55.30
2018-04-14T10:45:26.046Z,54.43
2018-04-14T10:47:53.609Z,57.20
2018-04-14T10:50:21.164Z,55.00
2018-04-14T10:52:48.636Z,52.72
2018-04-14T10:55:16.108Z,49.35
2018-04-14T10:57:43.665Z,51.08
2018-04-14T11:00:11.159Z,52.53
2018-04-14T11:02:38.616Z,51.63
2018-04-14T11:05:06.114Z,56.15
2018-04-14T11:07:33.660Z,52.73
2018-04-14T11:10:01.136Z,53.00
2018-04-14T11:12:28.580Z,52.72
2018-04-14T11:14:56.090Z,53.85
2018-04-14T11:17:23.640Z,55.23
2018-04-14T11:19:51.127Z,53.20
2018-04-14T11:22:18.594Z,53.45
2018-04-14T11:24:46.081Z,65.55
2018-04-14T11:27:13.532Z,51.87
2018-04-14T11:29:40.984Z,50.00
2018-04-14T11:32:08.623Z,52.20
2018-04-14T11:34:36.823Z,51.95
2018-04-14T11:37:04.296Z,53.08
2018-04-14T11:39:31.814Z,51.37
2018-04-14T11:41:59.278Z,48.27
2018-04-14T11:44:26.742Z,51.10
2018-04-14T11:46:54.207Z,51.50
2018-04-14T11:49:21.694Z,50.23
2018-04-14T11:51:49.132Z,57.58
2018-04-14T11:54:16.620Z,50.40
2018-04-14T11:56:45.601Z,54.17
2018-04-14T11:59:13.113Z,53.85
2018-04-14T12:01:40.568Z,50.42
2018-04-14T12:04:08.025Z,52.15
2018-04-14T12:06:35.486Z,53.63
2018-04-14T12:09:02.944Z,54.60
2018-04-14T12:11:30.414Z,54.20
2018-04-14T12:13:57.861Z,49.22
2018-04-14T12:16:25.372Z,53.33
2018-04-14T12:18:52.824Z,48.50
2018-04-14T12:21:20.290Z,52.25
2018-04-14T12:23:47.791Z,50.42
2018-04-14T12:26:15.258Z,51.37
2018-04-14T12:28:42.747Z,50.05
2018-04-14T12:31:10.261Z,52.70
2018-04-14T12:33:37.708Z,48.35
2018-04-14T12:36:05.943Z,49.57
2018-04-14T12:38:33.411Z,48.05
2018-04-14T12:41:00.859Z,48.47
2018-04-14T12:43:28.318Z,50.28
2018-04-14T12:45:55.803Z,47.85
2018-04-14T12:48:23.252Z,47.88
2018-04-14T12:50:50.721Z,51.03
2018-04-14T12:53:18.182Z,47.17
2018-04-14T12:55:46.404Z,49.00
2018-04-14T12:58:13.878Z,51.05
2018-04-14T13:00:41.334Z,46.67
2018-04-14T13:03:08.819Z,44.20
2018-04-14T13:05:36.282Z,45.70
2018-04-14T13:08:03.772Z,47.50
2018-04-14T13:10:31.246Z,46.65
2018-04-14T13:12:58.727Z,43.90
2018-04-14T13:15:26.203Z,45.08
2018-04-14T13:17:53.764Z,45.45
2018-04-14T13:20:21.234Z,45.45
2018-04-14T13:22:48.746Z,44.92
2018-04-14T13:25:16.278Z,41.40
2018-04-14T13:27:43.839Z,43.42
2018-04-14T13:30:11.312Z,45.22
2018-04-14T13:32:38.874Z,42.62
2018-04-14T13:35:06.346Z,43.08
2018-04-14T13:37:33.808Z,40.17
2018-04-14T13:40:01.270Z,41.90
2018-04-14T13:42:28.749Z,42.67
2018-04-14T13:44:56.196Z,39.55
2018-04-14T13:47:23.652Z,42.42
2018-04-14T13:49:51.108Z,48.28
2018-04-14T13:52:18.555Z,47.23
2018-04-14T13:54:46.802Z,46.17
2018-04-14T13:57:14.248Z,46.03
2018-04-14T13:59:41.726Z,47.53
2018-04-14T14:02:09.185Z,44.13
2018-04-14T14:04:36.660Z,43.87
2018-04-14T14:07:04.150Z,43.87
2018-04-14T14:09:31.595Z,43.72
2018-04-14T14:11:59.052Z,43.78
2018-04-14T14:14:26.515Z,41.40
2018-04-14T14:16:55.791Z,44.35
2018-04-14T14:19:23.252Z,40.83
2018-04-14T14:21:50.813Z,37.83
2018-04-14T14:24:18.382Z,37.77
2018-04-14T14:26:45.823Z,40.72
2018-04-14T14:29:13.291Z,43.10
2018-04-14T14:31:40.762Z,40.37
2018-04-14T14:34:08.244Z,40.97
2018-04-14T14:36:35.728Z,38.97
2018-04-14T14:39:03.187Z,39.30
2018-04-14T14:41:30.652Z,37.33
2018-04-14T14:43:58.120Z,36.60
2018-04-14T14:46:25.572Z,38.70
2018-04-14T14:48:53.040Z,40.83
2018-04-14T14:51:20.507Z,42.05
2018-04-14T14:53:47.979Z,42.78
2018-04-14T14:56:15.449Z,42.92
2018-04-14T14:58:42.914Z,43.55
2018-04-14T15:01:11.139Z,41.40
2018-04-14T15:03:38.605Z,42.80
2018-04-14T15:06:06.100Z,41.60
2018-04-14T15:08:35.147Z,41.28
2018-04-14T15:11:03.390Z,44.40
2018-04-14T15:13:30.939Z,40.03
2018-04-14T15:15:58.392Z,40.80
2018-04-14T15:18:25.847Z,42.50
2018-04-14T15:20:53.314Z,39.63
2018-04-14T15:23:20.771Z,42.70
2018-04-14T15:25:48.979Z,38.80
2018-04-14T15:28:16.467Z,38.43
2018-04-14T15:30:43.942Z,39.13
2018-04-14T15:33:11.385Z,43.60
2018-04-14T15:35:38.951Z,43.27
2018-04-14T15:38:06.408Z,39.53
2018-04-14T15:40:34.652Z,43.13
2018-04-14T15:43:02.175Z,45.23
2018-04-14T15:45:30.400Z,47.00
2018-04-14T15:47:57.937Z,42.33
2018-04-14T15:50:25.399Z,41.90
2018-04-14T15:52:52.858Z,48.87
2018-04-14T15:55:21.082Z,41.70
2018-04-14T15:57:48.582Z,42.90
2018-04-14T16:00:16.158Z,44.13
2018-04-14T16:02:43.670Z,40.10
2018-04-14T16:05:11.922Z,43.93
2018-04-14T16:07:39.394Z,47.03
2018-04-14T16:24:50.523Z,48.30
2018-04-14T16:27:18.011Z,51.20
2018-04-14T16:29:45.572Z,50.13
2018-04-14T17:04:06.224Z,53.55
2018-04-14T17:06:33.736Z,47.90
2018-04-14T17:09:01.211Z,54.67
2018-04-14T17:11:28.656Z,49.67
2018-04-14T17:13:56.143Z,58.07
2018-04-14T18:00:30.997Z,50.47
2018-04-14T18:02:58.468Z,59.10
2018-04-14T18:05:25.911Z,60.53
2018-04-14T18:07:53.389Z,58.23
2018-04-14T18:10:20.844Z,54.50
2018-04-14T18:12:48.315Z,54.77
2018-04-14T18:15:15.814Z,57.07
2018-04-14T18:17:43.283Z,53.80
2018-04-14T18:20:10.743Z,54.27
2018-04-14T18:22:38.198Z,56.67
2018-04-14T18:25:05.663Z,53.73
2018-04-14T18:27:33.109Z,51.60
2018-04-14T18:30:00.655Z,52.37
2018-04-14T18:32:28.905Z,53.40
2018-04-14T18:34:56.368Z,51.90
2018-04-14T18:37:23.820Z,54.43
2018-04-14T18:39:51.282Z,56.73
2018-04-14T18:42:18.738Z,55.60
2018-04-14T18:44:46.988Z,49.17
2018-04-14T18:47:14.458Z,53.10
2018-04-14T18:49:41.968Z,47.33
2018-04-14T18:52:09.493Z,48.50
2018-04-14T18:54:36.955Z,49.80
2018-04-14T18:57:04.417Z,57.90
2018-04-14T18:59:31.911Z,59.37
2018-04-14T19:01:59.470Z,51.20
2018-04-14T19:07:17.550Z,48.50
2018-04-14T19:09:45.009Z,51.20
2018-04-14T19:12:12.513Z,53.47
2018-04-14T19:14:39.983Z,51.23
2018-04-14T19:17:07.433Z,47.60
2018-04-14T19:19:35.003Z,51.43
2018-04-14T19:22:02.470Z,44.27
2018-04-14T19:24:30.056Z,51.03
2018-04-14T19:26:57.511Z,50.70
2018-04-14T19:29:25.090Z,48.80
2018-04-14T19:31:52.571Z,51.53
2018-04-14T19:34:20.143Z,51.67
2018-04-14T19:36:47.706Z,48.90
2018-04-14T19:39:15.374Z,49.50
2018-04-14T19:41:42.831Z,56.07
2018-04-14T19:44:10.304Z,58.30
2018-04-14T19:46:37.770Z,53.20
2018-04-14T19:49:06.055Z,60.83
2018-04-14T19:51:33.508Z,57.00
2018-04-14T19:54:01.015Z,52.00
2018-04-14T19:56:28.576Z,51.90
2018-04-14T19:58:56.044Z,55.63
2018-04-14T20:01:23.517Z,52.53
2018-04-14T20:03:50.968Z,46.80
2018-04-14T20:06:18.435Z,49.47
2018-04-14T20:08:45.924Z,55.27
2018-04-14T20:11:13.405Z,51.13
2018-04-14T20:13:40.879Z,52.43
2018-04-14T20:16:08.358Z,47.40
2018-04-14T20:18:36.571Z,56.37
2018-04-14T20:21:04.088Z,54.27
2018-04-14T20:23:31.575Z,50.70
2018-04-14T20:25:59.142Z,52.53
2018-04-14T20:28:26.604Z,55.93
2018-04-14T20:30:54.060Z,57.35
2018-04-14T20:33:21.561Z,60.55
2018-04-14T20:35:49.012Z,55.75
2018-04-14T20:38:16.489Z,59.63
2018-04-14T20:40:44.062Z,53.27
2018-04-14T20:43:11.539Z,51.97
2018-04-14T20:45:39.007Z,55.45
2018-04-14T20:48:06.484Z,51.40
2018-04-14T20:50:34.028Z,54.07
2018-04-14T20:53:01.503Z,64.83
2018-04-14T20:55:28.966Z,53.57
2018-04-14T20:57:56.439Z,51.80
2018-04-14T21:00:23.917Z,52.43
2018-04-14T21:02:51.367Z,55.77
2018-04-14T21:05:18.867Z,57.70
2018-04-14T21:07:46.347Z,54.43
2018-04-14T21:10:14.579Z,51.60
2018-04-14T21:12:42.095Z,58.30
2018-04-14T21:15:09.643Z,55.10
2018-04-14T21:17:37.117Z,55.20
2018-04-14T21:20:04.608Z,58.70
2018-04-14T21:22:32.065Z,59.53
2018-04-14T21:25:00.261Z,54.43
2018-04-14T21:27:27.729Z,54.50
2018-04-14T21:29:55.188Z,52.37
2018-04-14T21:32:22.658Z,54.07
2018-04-14T21:34:50.105Z,53.73
2018-04-14T21:37:17.586Z,52.57
2018-04-14T21:39:45.051Z,56.73
2018-04-14T21:42:12.515Z,53.87
2018-04-14T21:44:40.015Z,54.00
2018-04-14T21:47:07.472Z,48.43
2018-04-14T21:49:34.923Z,59.60
2018-04-14T21:52:02.421Z,51.97
2018-04-14T21:54:29.900Z,56.70
2018-04-14T21:56:57.359Z,50.67
2018-04-14T21:59:24.846Z,57.03
2018-04-14T22:01:52.329Z,54.50
2018-04-14T22:04:19.776Z,53.20
2018-04-14T22:06:47.236Z,54.30
2018-04-14T22:09:14.732Z,56.78
2018-04-14T22:11:42.185Z,59.15
2018-04-14T22:14:09.683Z,54.33
2018-04-14T22:16:37.159Z,53.03
2018-04-14T22:19:04.618Z,53.93
2018-04-14T22:21:32.080Z,57.63
2018-04-14T22:23:59.550Z,53.80
2018-04-14T22:26:27.071Z,57.67
2018-04-14T22:28:54.529Z,54.60
2018-04-14T22:31:22.011Z,54.63
2018-04-14T22:33:49.476Z,45.67
2018-04-14T22:36:16.955Z,52.33
2018-04-14T22:38:44.523Z,50.80
2018-04-14T22:41:12.095Z,51.20
2018-04-14T22:43:39.567Z,52.13
2018-04-14T22:46:07.124Z,58.40
2018-04-14T22:48:34.595Z,57.50
2018-04-14T22:51:02.059Z,55.07
2018-04-14T22:53:29.651Z,56.40
2018-04-14T22:55:57.126Z,54.67
2018-04-14T22:58:24.705Z,53.83
2018-04-14T23:00:52.175Z,53.17
2018-04-14T23:03:19.755Z,61.80
2018-04-14T23:05:47.234Z,55.37
2018-04-14T23:08:14.784Z,55.70
2018-04-14T23:10:42.255Z,54.77
2018-04-14T23:13:09.742Z,55.77
2018-04-14T23:15:37.215Z,53.03
2018-04-14T23:18:04.768Z,55.60
2018-04-14T23:20:32.240Z,57.97
2018-04-14T23:22:59.695Z,55.47
2018-04-14T23:25:27.183Z,51.47
2018-04-14T23:27:54.656Z,56.53
2018-04-14T23:30:22.128Z,56.93
2018-04-14T23:32:49.596Z,55.33
2018-04-14T23:35:17.063Z,63.10
2018-04-14T23:37:44.536Z,49.73
2018-04-14T23:40:12.031Z,55.73
2018-04-14T23:42:39.594Z,54.37
2018-04-14T23:45:07.081Z,55.97
2018-04-14T23:47:35.327Z,53.97
2018-04-14T23:50:02.830Z,56.37
2018-04-14T23:52:30.384Z,55.97
2018-04-14T23:54:57.848Z,56.43
2018-04-14T23:57:25.322Z,58.77
2018-04-14T23:59:52.787Z,51.20
